Airfield :
LOGIN :

Register | Disclaimer

   EN    FR    IT 

 










Legend :    VFR   Marginal VFR   IFR   Intensive IFR   Very Intensive IFR
Visi :
Ceiling :
>= 8 km
>= 3000ft
5 to 8 km
1000 to 3000 ft
1500m to 5 km
500 to 1000 ft
800 to 1500m
200 to 500 ft
< 800m
< 200 ft
Symbols :   Thunderstorms  Fog  Heavy snow  Heavy precipitations  Wind > 20 kt
SIGMETs :     Misc.  Thunderstorms  Icing  Turbulence  Mountain Waves  Volcanic Ashes






- Airport Elevation : 505 ft
- IATA code : SXB


LFST - Strasbourg

CURRENT METAR :
  • 221400Z AUTO 01006KT 330V040 CAVOK 25/07 Q1013 TEMPO FEW080CB

EXPIRED METARs :
  • 221330Z AUTO 03005KT 300V070 CAVOK 25/07 Q1013 TEMPO FEW080CB
  • 221300Z AUTO 02005KT 330V060 CAVOK 25/08 Q1013 NOSIG
  • 221230Z AUTO VRB05KT CAVOK 25/09 Q1013 NOSIG
  • 221200Z AUTO 04004KT 350V120 CAVOK 26/09 Q1013 NOSIG
  • 221130Z AUTO VRB03KT CAVOK 25/09 Q1014 NOSIG

TAF TAF LFST
Valid from the 22 at 12:00 until the 23 at 12:00 UTC


221100Z 2212/2312 VRB04KT CAVOK
PROB30
TEMPO 2215/2221 -SHRA FEW080CB
BECMG 2303/2306 18010KT
PROB40
TEMPO 2300/2306 SHRA FEW080CB
PROB40
TEMPO 2310/2312 4000 SHRA SCT050CB



MET'MAP, your aeronautical weather chart ! - Copyright ORBIFLY December 2007 - Disclaimer

ORBIFLY MET'MAP TEAM :

Programming & Development : Alexandra Zaïnal
Original concept : Baudouin d'Aumeries
Technical & hardware support : Manuel Goepfert
Assistance : Marc-Olivier Méhu

Contact : metmap@orbifly.com




SOURCES & CREDITS :

   NOAA